Time,TemperatureF,DewpointF,PressureIn,WindDirection,WindDirectionDegrees,WindSpeedMPH,WindSpeedGustMPH,Humidity,HourlyPrecipIn,Conditions,Clouds,dailyrainin,SoftwareType,DateUTC
2013-01-15 00:02:00,15.4,8.3,30.44,NW,312,0.0,1.0,73,0.00,,,0.00,WeatherTracker,2013-01-15 07:02:00,
2013-01-15 00:07:00,15.3,7.9,30.44,NW,312,0.0,1.0,72,0.00,,,0.00,WeatherTracker,2013-01-15 07:07:00,
2013-01-15 00:12:00,14.9,7.5,30.45,NW,312,0.0,0.0,72,0.00,,,0.00,WeatherTracker,2013-01-15 07:12:00,
2013-01-15 00:17:00,14.7,7.9,30.45,NW,312,0.0,1.0,74,0.00,,,0.00,WeatherTracker,2013-01-15 07:17:00,
2013-01-15 00:22:00,14.6,7.8,30.45,NW,312,0.0,1.0,74,0.00,,,0.00,WeatherTracker,2013-01-15 07:22:00,
2013-01-15 00:27:00,14.5,7.5,30.45,NW,312,0.0,0.0,73,0.00,,,0.00,WeatherTracker,2013-01-15 07:27:00,
2013-01-15 00:32:00,14.5,7.5,30.45,NW,312,0.0,0.0,73,0.00,,,0.00,WeatherTracker,2013-01-15 07:32:00,
2013-01-15 00:37:00,14.7,7.6,30.45,NW,311,0.0,0.0,73,0.00,,,0.00,WeatherTracker,2013-01-15 07:37:00,
2013-01-15 00:43:00,14.9,7.5,30.45,WNW,300,0.0,1.0,72,0.00,,,0.00,WeatherTracker,2013-01-15 07:43:00,
2013-01-15 00:48:00,14.9,7.5,30.45,WNW,300,0.0,1.0,72,0.00,,,0.00,WeatherTracker,2013-01-15 07:48:00,
2013-01-15 00:53:00,14.6,7.5,30.45,WNW,300,0.0,1.0,73,0.00,,,0.00,WeatherTracker,2013-01-15 07:53:00,
2013-01-15 00:58:00,14.6,7.2,30.45,West,261,0.0,1.0,72,0.00,,,0.00,WeatherTracker,2013-01-15 07:58:00,
2013-01-15 01:03:00,14.6,7.2,30.46,West,261,0.0,1.0,72,0.00,,,0.00,WeatherTracker,2013-01-15 08:03:00,
2013-01-15 01:08:00,14.5,7.1,30.46,WSW,245,0.0,3.0,72,0.00,,,0.00,WeatherTracker,2013-01-15 08:08:00,
2013-01-15 01:13:00,14.4,7.1,30.46,WSW,245,0.0,3.0,72,0.00,,,0.00,WeatherTracker,2013-01-15 08:13:00,
2013-01-15 01:18:00,14.3,6.6,30.46,WSW,256,0.0,0.0,71,0.00,,,0.00,WeatherTracker,2013-01-15 08:18:00,
2013-01-15 01:23:00,14.3,6.3,30.47,WSW,256,0.0,1.0,70,0.00,,,0.00,WeatherTracker,2013-01-15 08:23:00,
2013-01-15 01:28:00,14.2,6.2,30.47,WSW,256,0.0,1.0,70,0.00,,,0.00,WeatherTracker,2013-01-15 08:28:00,
2013-01-15 01:33:00,13.8,5.9,30.47,NW,309,0.0,2.0,70,0.00,,,0.00,WeatherTracker,2013-01-15 08:33:00,
2013-01-15 01:38:00,13.6,5.7,30.47,NW,314,0.0,2.0,70,0.00,,,0.00,WeatherTracker,2013-01-15 08:38:00,
2013-01-15 01:43:00,13.5,5.6,30.47,NW,313,0.0,2.0,70,0.00,,,0.00,WeatherTracker,2013-01-15 08:43:00,
2013-01-15 01:48:00,13.2,5.3,30.47,NW,313,0.0,1.0,70,0.00,,,0.00,WeatherTracker,2013-01-15 08:48:00,
2013-01-15 01:53:00,13.2,5.3,30.48,NW,314,0.0,0.0,70,0.00,,,0.00,WeatherTracker,2013-01-15 08:53:00,
2013-01-15 01:58:00,13.0,5.4,30.48,NW,314,0.0,0.0,71,0.00,,,0.00,WeatherTracker,2013-01-15 08:58:00,
2013-01-15 02:03:00,12.8,5.2,30.48,NW,313,0.0,0.0,71,0.00,,,0.00,WeatherTracker,2013-01-15 09:03:00,
2013-01-15 02:08:00,12.8,5.2,30.48,NW,314,0.0,0.0,71,0.00,,,0.00,WeatherTracker,2013-01-15 09:08:00,
2013-01-15 02:13:00,12.7,5.1,30.48,NW,314,0.0,0.0,71,0.00,,,0.00,WeatherTracker,2013-01-15 09:13:00,
2013-01-15 02:18:00,12.6,5.3,30.48,NW,314,0.0,0.0,72,0.00,,,0.00,WeatherTracker,2013-01-15 09:18:00,
2013-01-15 02:23:00,12.5,5.2,30.48,NW,314,0.0,0.0,72,0.00,,,0.00,WeatherTracker,2013-01-15 09:23:00,
2013-01-15 02:28:00,12.1,4.8,30.48,NW,314,0.0,0.0,72,0.00,,,0.00,WeatherTracker,2013-01-15 09:28:00,
2013-01-15 02:33:00,12.0,5.3,30.49,NW,314,0.0,0.0,74,0.00,,,0.00,WeatherTracker,2013-01-15 09:33:00,
2013-01-15 02:38:00,11.9,5.5,30.49,NW,313,0.0,0.0,75,0.00,,,0.00,WeatherTracker,2013-01-15 09:38:00,
2013-01-15 02:43:00,11.6,5.2,30.49,NW,313,0.0,0.0,75,0.00,,,0.00,WeatherTracker,2013-01-15 09:43:00,
2013-01-15 02:48:00,11.5,5.1,30.49,NW,314,0.0,0.0,75,0.00,,,0.00,WeatherTracker,2013-01-15 09:48:00,
2013-01-15 02:53:00,11.5,5.4,30.49,NW,314,0.0,0.0,76,0.00,,,0.00,WeatherTracker,2013-01-15 09:53:00,
2013-01-15 02:59:00,11.4,5.0,30.49,NW,314,0.0,0.0,75,0.00,,,0.00,WeatherTracker,2013-01-15 09:59:00,
2013-01-15 03:04:00,11.3,4.9,30.49,NW,314,0.0,0.0,75,0.00,,,0.00,WeatherTracker,2013-01-15 10:04:00,
2013-01-15 03:09:00,11.3,4.9,30.49,NW,314,0.0,0.0,75,0.00,,,0.00,WeatherTracker,2013-01-15 10:09:00,
2013-01-15 03:14:00,11.4,5.3,30.50,NW,314,0.0,0.0,76,0.00,,,0.00,WeatherTracker,2013-01-15 10:14:00,
2013-01-15 03:19:00,11.4,4.8,30.50,NW,314,0.0,0.0,74,0.00,,,0.00,WeatherTracker,2013-01-15 10:19:00,
2013-01-15 03:24:00,11.8,5.1,30.50,NW,314,0.0,0.0,74,0.00,,,0.00,WeatherTracker,2013-01-15 10:24:00,
2013-01-15 03:29:00,11.6,4.6,30.50,NW,313,0.0,0.0,73,0.00,,,0.00,WeatherTracker,2013-01-15 10:29:00,
2013-01-15 03:34:00,11.3,4.7,30.50,NW,314,0.0,0.0,74,0.00,,,0.00,WeatherTracker,2013-01-15 10:34:00,
2013-01-15 03:39:00,11.0,4.7,30.50,NW,313,0.0,0.0,75,0.00,,,0.00,WeatherTracker,2013-01-15 10:39:00,
2013-01-15 03:44:00,10.9,4.6,30.51,NW,313,0.0,0.0,75,0.00,,,0.00,WeatherTracker,2013-01-15 10:44:00,
2013-01-15 03:49:00,11.1,4.8,30.51,NW,315,0.0,0.0,75,0.00,,,0.00,WeatherTracker,2013-01-15 10:49:00,
2013-01-15 03:54:00,11.5,4.8,30.51,NW,315,0.0,0.0,74,0.00,,,0.00,WeatherTracker,2013-01-15 10:54:00,
2013-01-15 03:59:00,11.4,4.5,30.51,NW,315,0.0,0.0,73,0.00,,,0.00,WeatherTracker,2013-01-15 10:59:00,
2013-01-15 04:04:00,11.5,4.6,30.52,NW,315,0.0,0.0,73,0.00,,,0.00,WeatherTracker,2013-01-15 11:04:00,
2013-01-15 04:09:00,11.4,4.2,30.52,NW,315,0.0,1.0,72,0.00,,,0.00,WeatherTracker,2013-01-15 11:09:00,
2013-01-15 04:14:00,11.0,3.8,30.52,NW,315,0.0,1.0,72,0.00,,,0.00,WeatherTracker,2013-01-15 11:14:00,
2013-01-15 04:19:00,10.9,3.7,30.51,NW,315,0.0,0.0,72,0.00,,,0.00,WeatherTracker,2013-01-15 11:19:00,
2013-01-15 04:25:00,10.7,3.5,30.52,NW,315,0.0,0.0,72,0.00,,,0.00,WeatherTracker,2013-01-15 11:25:00,
2013-01-15 04:30:00,10.3,3.4,30.52,NW,315,0.0,0.0,73,0.00,,,0.00,WeatherTracker,2013-01-15 11:30:00,
2013-01-15 04:35:00,10.2,3.3,30.52,NW,315,0.0,0.0,73,0.00,,,0.00,WeatherTracker,2013-01-15 11:35:00,
2013-01-15 04:40:00,10.0,3.1,30.52,NW,315,0.0,0.0,73,0.00,,,0.00,WeatherTracker,2013-01-15 11:40:00,
2013-01-15 04:45:00,10.0,3.1,30.52,NW,315,0.0,0.0,73,0.00,,,0.00,WeatherTracker,2013-01-15 11:45:00,
2013-01-15 04:50:00,9.9,3.3,30.52,NW,315,0.0,0.0,74,0.00,,,0.00,WeatherTracker,2013-01-15 11:50:00,
2013-01-15 04:55:00,9.9,3.3,30.52,NW,315,0.0,0.0,74,0.00,,,0.00,WeatherTracker,2013-01-15 11:55:00,
2013-01-15 05:00:00,9.8,3.5,30.52,NW,315,0.0,0.0,75,0.00,,,0.00,WeatherTracker,2013-01-15 12:00:00,
2013-01-15 05:05:00,9.6,3.3,30.52,NW,315,0.0,0.0,75,0.00,,,0.00,WeatherTracker,2013-01-15 12:05:00,
2013-01-15 05:10:00,9.2,3.2,30.52,NW,315,0.0,0.0,76,0.00,,,0.00,WeatherTracker,2013-01-15 12:10:00,
2013-01-15 05:15:00,9.9,3.9,30.52,NW,315,0.0,0.0,76,0.00,,,0.00,WeatherTracker,2013-01-15 12:15:00,
2013-01-15 05:20:00,9.9,3.6,30.52,NW,315,0.0,0.0,75,0.00,,,0.00,WeatherTracker,2013-01-15 12:20:00,
2013-01-15 05:25:00,9.8,3.5,30.52,NW,315,0.0,0.0,75,0.00,,,0.00,WeatherTracker,2013-01-15 12:25:00,
2013-01-15 05:30:00,9.4,2.8,30.53,NW,315,0.0,0.0,74,0.00,,,0.00,WeatherTracker,2013-01-15 12:30:00,
2013-01-15 05:35:00,9.2,2.9,30.52,NW,315,0.0,0.0,75,0.00,,,0.00,WeatherTracker,2013-01-15 12:35:00,
2013-01-15 05:40:00,9.0,3.0,30.52,NW,315,0.0,0.0,76,0.00,,,0.00,WeatherTracker,2013-01-15 12:40:00,
2013-01-15 05:45:00,9.0,3.0,30.53,NW,315,0.0,0.0,76,0.00,,,0.00,WeatherTracker,2013-01-15 12:45:00,
2013-01-15 05:50:00,8.7,3.0,30.53,NW,315,0.0,0.0,77,0.00,,,0.00,WeatherTracker,2013-01-15 12:50:00,
2013-01-15 05:55:00,8.8,3.4,30.53,NW,315,0.0,0.0,78,0.00,,,0.00,WeatherTracker,2013-01-15 12:55:00,
2013-01-15 06:00:00,8.9,3.5,30.53,NW,315,0.0,0.0,78,0.00,,,0.00,WeatherTracker,2013-01-15 13:00:00,
2013-01-15 06:06:00,8.7,3.0,30.53,NW,315,0.0,0.0,77,0.00,,,0.00,WeatherTracker,2013-01-15 13:06:00,
2013-01-15 06:11:00,8.7,3.0,30.54,NW,315,0.0,0.0,77,0.00,,,0.00,WeatherTracker,2013-01-15 13:11:00,
2013-01-15 06:16:00,9.2,3.2,30.54,NW,315,0.0,0.0,76,0.00,,,0.00,WeatherTracker,2013-01-15 13:16:00,
2013-01-15 06:21:00,9.1,2.5,30.54,NW,315,0.0,0.0,74,0.00,,,0.00,WeatherTracker,2013-01-15 13:21:00,
2013-01-15 06:26:00,8.7,2.4,30.54,NW,315,0.0,0.0,75,0.00,,,0.00,WeatherTracker,2013-01-15 13:26:00,
2013-01-15 06:31:00,8.7,3.0,30.55,NW,315,0.0,0.0,77,0.00,,,0.00,WeatherTracker,2013-01-15 13:31:00,
2013-01-15 06:36:00,9.2,2.9,30.55,NW,315,0.0,0.0,75,0.00,,,0.00,WeatherTracker,2013-01-15 13:36:00,
2013-01-15 06:41:00,9.3,2.7,30.55,NW,315,0.0,0.0,74,0.00,,,0.00,WeatherTracker,2013-01-15 13:41:00,
2013-01-15 06:46:00,8.5,2.2,30.56,NW,315,0.0,0.0,75,0.00,,,0.00,WeatherTracker,2013-01-15 13:46:00,
2013-01-15 06:51:00,8.4,2.4,30.56,NW,315,0.0,0.0,76,0.00,,,0.00,WeatherTracker,2013-01-15 13:51:00,
2013-01-15 06:56:00,8.3,2.6,30.57,NW,315,0.0,0.0,77,0.00,,,0.00,WeatherTracker,2013-01-15 13:56:00,
2013-01-15 07:01:00,8.0,2.3,30.57,NW,315,0.0,0.0,77,0.00,,,0.00,WeatherTracker,2013-01-15 14:01:00,
2013-01-15 07:06:00,8.2,2.8,30.57,NW,315,0.0,0.0,78,0.00,,,0.00,WeatherTracker,2013-01-15 14:06:00,
2013-01-15 07:11:00,8.6,3.2,30.57,NW,315,0.0,0.0,78,0.00,,,0.00,WeatherTracker,2013-01-15 14:11:00,
2013-01-15 07:16:00,8.8,2.5,30.58,NW,315,0.0,0.0,75,0.00,,,0.00,WeatherTracker,2013-01-15 14:16:00,
2013-01-15 07:21:00,8.5,2.2,30.58,NW,315,0.0,0.0,75,0.00,,,0.00,WeatherTracker,2013-01-15 14:21:00,
2013-01-15 07:26:00,8.2,2.5,30.58,NW,315,0.0,0.0,77,0.00,,,0.00,WeatherTracker,2013-01-15 14:26:00,
2013-01-15 07:31:00,8.1,2.7,30.58,NW,315,0.0,0.0,78,0.00,,,0.00,WeatherTracker,2013-01-15 14:31:00,
2013-01-15 07:36:00,8.9,3.2,30.59,NW,315,0.0,1.0,77,0.00,,,0.00,WeatherTracker,2013-01-15 14:36:00,
2013-01-15 07:41:00,9.5,2.9,30.59,NW,315,0.0,1.0,74,0.00,,,0.00,WeatherTracker,2013-01-15 14:41:00,
2013-01-15 07:46:00,9.8,2.6,30.59,NW,315,0.0,1.0,72,0.00,,,0.00,WeatherTracker,2013-01-15 14:46:00,
2013-01-15 07:51:00,10.2,2.4,30.60,NW,315,0.0,1.0,70,0.00,,,0.00,WeatherTracker,2013-01-15 14:51:00,
2013-01-15 07:56:00,10.6,2.5,30.60,NW,315,0.0,0.0,69,0.00,,,0.00,WeatherTracker,2013-01-15 14:56:00,
2013-01-15 08:01:00,11.4,2.9,30.60,West,280,0.0,2.0,68,0.00,,,0.00,WeatherTracker,2013-01-15 15:01:00,
2013-01-15 08:06:00,12.1,2.6,30.60,WNW,284,0.0,2.0,65,0.00,,,0.00,WeatherTracker,2013-01-15 15:06:00,
2013-01-15 08:11:00,12.7,2.5,30.60,NW,314,1.0,3.0,63,0.00,,,0.00,WeatherTracker,2013-01-15 15:11:00,
2013-01-15 08:16:00,13.2,2.3,30.60,West,281,0.0,10.0,61,0.00,,,0.00,WeatherTracker,2013-01-15 15:16:00,
2013-01-15 08:21:00,13.8,1.8,30.60,NW,325,1.0,10.0,58,0.00,,,0.00,WeatherTracker,2013-01-15 15:21:00,
2013-01-15 08:26:00,14.2,2.2,30.61,NW,325,1.0,10.0,58,0.00,,,0.00,WeatherTracker,2013-01-15 15:26:00,
2013-01-15 08:31:00,14.5,2.1,30.61,SW,235,0.0,8.0,57,0.00,,,0.00,WeatherTracker,2013-01-15 15:31:00,
2013-01-15 08:36:00,14.8,2.4,30.61,West,275,0.0,8.0,57,0.00,,,0.00,WeatherTracker,2013-01-15 15:36:00,
2013-01-15 08:42:00,15.3,2.1,30.61,NNW,348,1.0,8.0,55,0.00,,,0.00,WeatherTracker,2013-01-15 15:42:00,
2013-01-15 08:47:00,15.3,2.1,30.62,NW,320,0.0,8.0,55,0.00,,,0.00,WeatherTracker,2013-01-15 15:47:00,
2013-01-15 08:52:00,15.7,2.0,30.62,SW,221,0.0,6.0,54,0.00,,,0.00,WeatherTracker,2013-01-15 15:52:00,
2013-01-15 08:57:00,15.8,2.1,30.63,ESE,106,1.0,6.0,54,0.00,,,0.00,WeatherTracker,2013-01-15 15:57:00,
2013-01-15 09:02:00,16.1,2.0,30.63,SW,230,1.0,6.0,53,0.00,,,0.00,WeatherTracker,2013-01-15 16:02:00,
2013-01-15 09:07:00,16.6,2.5,30.63,ESE,111,1.0,5.0,53,0.00,,,0.00,WeatherTracker,2013-01-15 16:07:00,
2013-01-15 09:12:00,16.8,2.3,30.63,NE,47,0.0,8.0,52,0.00,,,0.00,WeatherTracker,2013-01-15 16:12:00,
2013-01-15 09:17:00,16.9,1.9,30.63,NNW,346,0.0,8.0,51,0.00,,,0.00,WeatherTracker,2013-01-15 16:17:00,
2013-01-15 09:22:00,16.7,1.8,30.64,NW,304,0.0,7.0,51,0.00,,,0.00,WeatherTracker,2013-01-15 16:22:00,
2013-01-15 09:27:00,16.8,2.3,30.64,WNW,303,3.0,9.0,52,0.00,,,0.00,WeatherTracker,2013-01-15 16:27:00,
2013-01-15 09:32:00,17.0,2.0,30.64,West,279,1.0,9.0,51,0.00,,,0.00,WeatherTracker,2013-01-15 16:32:00,
2013-01-15 09:37:00,17.4,2.4,30.64,NW,310,0.0,8.0,51,0.00,,,0.00,WeatherTracker,2013-01-15 16:37:00,
2013-01-15 09:42:00,17.9,2.9,30.64,WSW,242,2.0,8.0,51,0.00,,,0.00,WeatherTracker,2013-01-15 16:42:00,
2013-01-15 09:47:00,17.8,1.9,30.65,WNW,292,2.0,7.0,49,0.00,,,0.00,WeatherTracker,2013-01-15 16:47:00,
2013-01-15 09:52:00,18.1,2.2,30.65,WNW,298,0.0,7.0,49,0.00,,,0.00,WeatherTracker,2013-01-15 16:52:00,
2013-01-15 09:57:00,18.0,1.7,30.65,West,279,1.0,7.0,48,0.00,,,0.00,WeatherTracker,2013-01-15 16:57:00,
2013-01-15 10:02:00,18.4,2.5,30.65,West,279,0.0,6.0,49,0.00,,,0.00,WeatherTracker,2013-01-15 17:02:00,
2013-01-15 10:07:00,18.4,2.5,30.65,NNW,346,4.0,7.0,49,0.00,,,0.00,WeatherTracker,2013-01-15 17:07:00,
2013-01-15 10:12:00,18.6,2.2,30.65,West,265,0.0,10.0,48,0.00,,,0.00,WeatherTracker,2013-01-15 17:12:00,
2013-01-15 10:17:00,18.8,2.4,30.65,NNE,30,3.0,10.0,48,0.00,,,0.00,WeatherTracker,2013-01-15 17:17:00,
2013-01-15 10:22:00,19.3,3.3,30.66,West,265,0.0,7.0,49,0.00,,,0.00,WeatherTracker,2013-01-15 17:22:00,
2013-01-15 10:27:00,19.6,3.6,30.65,WNW,303,1.0,6.0,49,0.00,,,0.00,WeatherTracker,2013-01-15 17:27:00,
2013-01-15 10:32:00,19.8,3.3,30.66,North,11,5.0,6.0,48,0.00,,,0.00,WeatherTracker,2013-01-15 17:32:00,
2013-01-15 10:37:00,20.2,4.6,30.65,South,186,1.0,7.0,50,0.00,,,0.00,WeatherTracker,2013-01-15 17:37:00,
2013-01-15 10:42:00,21.0,4.9,30.65,WSW,238,4.0,7.0,49,0.00,,,0.00,WeatherTracker,2013-01-15 17:42:00,
2013-01-15 10:48:00,20.9,3.9,30.65,NNW,336,0.0,8.0,47,0.00,,,0.00,WeatherTracker,2013-01-15 17:48:00,
2013-01-15 10:53:00,21.1,3.6,30.65,NW,317,0.0,8.0,46,0.00,,,0.00,WeatherTracker,2013-01-15 17:53:00,
2013-01-15 10:58:00,21.7,5.5,30.65,ENE,58,0.0,5.0,49,0.00,,,0.00,WeatherTracker,2013-01-15 17:58:00,
2013-01-15 11:03:00,22.1,5.0,30.65,NNW,343,1.0,6.0,47,0.00,,,0.00,WeatherTracker,2013-01-15 18:03:00,
2013-01-15 11:08:00,22.4,4.8,30.64,West,270,6.0,6.0,46,0.00,,,0.00,WeatherTracker,2013-01-15 18:08:00,
2013-01-15 11:13:00,22.0,4.4,30.64,NW,304,5.0,8.0,46,0.00,,,0.00,WeatherTracker,2013-01-15 18:13:00,
2013-01-15 11:18:00,22.3,5.2,30.64,NNW,329,0.0,8.0,47,0.00,,,0.00,WeatherTracker,2013-01-15 18:18:00,
2013-01-15 11:23:00,22.6,5.0,30.63,NNW,340,0.0,7.0,46,0.00,,,0.00,WeatherTracker,2013-01-15 18:23:00,
2013-01-15 11:28:00,22.9,4.8,30.63,West,263,4.0,7.0,45,0.00,,,0.00,WeatherTracker,2013-01-15 18:28:00,
2013-01-15 11:33:00,23.1,4.5,30.63,WSW,254,3.0,8.0,44,0.00,,,0.00,WeatherTracker,2013-01-15 18:33:00,
2013-01-15 11:38:00,23.5,4.3,30.62,SW,228,2.0,8.0,43,0.00,,,0.00,WeatherTracker,2013-01-15 18:38:00,
2013-01-15 11:43:00,23.4,3.7,30.62,North,9,0.0,7.0,42,0.00,,,0.00,WeatherTracker,2013-01-15 18:43:00,
2013-01-15 11:48:00,23.9,4.2,30.62,North,10,1.0,7.0,42,0.00,,,0.00,WeatherTracker,2013-01-15 18:48:00,
2013-01-15 11:53:00,24.7,4.4,30.62,NNW,344,0.0,6.0,41,0.00,,,0.00,WeatherTracker,2013-01-15 18:53:00,
2013-01-15 11:58:00,24.8,4.5,30.62,ENE,59,2.0,7.0,41,0.00,,,0.00,WeatherTracker,2013-01-15 18:58:00,
2013-01-15 12:03:00,24.9,4.6,30.62,NE,51,2.0,7.0,41,0.00,,,0.00,WeatherTracker,2013-01-15 19:03:00,
2013-01-15 12:08:00,24.5,3.7,30.61,WSW,247,2.0,5.0,40,0.00,,,0.00,WeatherTracker,2013-01-15 19:08:00,
2013-01-15 12:13:00,24.8,3.4,30.61,NW,312,0.0,7.0,39,0.00,,,0.00,WeatherTracker,2013-01-15 19:13:00,
2013-01-15 12:18:00,25.4,5.0,30.61,West,269,3.0,7.0,41,0.00,,,0.00,WeatherTracker,2013-01-15 19:18:00,
2013-01-15 12:23:00,25.1,4.2,30.61,East,92,1.0,4.0,40,0.00,,,0.00,WeatherTracker,2013-01-15 19:23:00,
2013-01-15 12:28:00,25.7,4.2,30.61,SSW,200,1.0,6.0,39,0.00,,,0.00,WeatherTracker,2013-01-15 19:28:00,
2013-01-15 12:33:00,25.6,4.7,30.61,NE,40,0.0,10.0,40,0.00,,,0.00,WeatherTracker,2013-01-15 19:33:00,
2013-01-15 12:38:00,26.6,5.6,30.61,East,88,1.0,10.0,40,0.00,,,0.00,WeatherTracker,2013-01-15 19:38:00,
2013-01-15 12:43:00,25.8,3.2,30.61,WNW,296,0.0,9.0,37,0.00,,,0.00,WeatherTracker,2013-01-15 19:43:00,
2013-01-15 12:48:00,25.9,3.2,30.60,NNE,30,0.0,9.0,37,0.00,,,0.00,WeatherTracker,2013-01-15 19:48:00,
2013-01-15 12:54:00,26.1,3.4,30.61,WSW,239,4.0,6.0,37,0.00,,,0.00,WeatherTracker,2013-01-15 19:54:00,
2013-01-15 12:59:00,26.5,3.8,30.61,NNE,28,1.0,6.0,37,0.00,,,0.00,WeatherTracker,2013-01-15 19:59:00,
2013-01-15 13:04:00,27.1,4.3,30.60,SE,132,3.0,6.0,37,0.00,,,0.00,WeatherTracker,2013-01-15 20:04:00,
2013-01-15 13:09:00,27.4,4.6,30.61,WNW,301,3.0,4.0,37,0.00,,,0.00,WeatherTracker,2013-01-15 20:09:00,
2013-01-15 13:14:00,27.1,4.3,30.61,ENE,66,0.0,4.0,37,0.00,,,0.00,WeatherTracker,2013-01-15 20:14:00,
2013-01-15 13:19:00,27.0,4.8,30.60,West,259,4.0,6.0,38,0.00,,,0.00,WeatherTracker,2013-01-15 20:19:00,
2013-01-15 13:24:00,26.8,5.2,30.60,NE,52,0.0,6.0,39,0.00,,,0.00,WeatherTracker,2013-01-15 20:24:00,
2013-01-15 13:29:00,27.5,4.7,30.59,NW,311,1.0,6.0,37,0.00,,,0.00,WeatherTracker,2013-01-15 20:29:00,
2013-01-15 13:34:00,27.8,5.0,30.59,West,265,2.0,5.0,37,0.00,,,0.00,WeatherTracker,2013-01-15 20:34:00,
2013-01-15 13:39:00,27.1,4.3,30.59,ENE,62,1.0,8.0,37,0.00,,,0.00,WeatherTracker,2013-01-15 20:39:00,
2013-01-15 13:44:00,27.3,3.3,30.60,South,169,0.0,8.0,35,0.00,,,0.00,WeatherTracker,2013-01-15 20:44:00,
2013-01-15 13:49:00,27.6,3.6,30.60,WNW,299,2.0,7.0,35,0.00,,,0.00,WeatherTracker,2013-01-15 20:49:00,
2013-01-15 13:54:00,28.2,4.1,30.61,NW,311,1.0,7.0,35,0.00,,,0.00,WeatherTracker,2013-01-15 20:54:00,
2013-01-15 13:59:00,28.0,3.9,30.60,SSW,200,1.0,7.0,35,0.00,,,0.00,WeatherTracker,2013-01-15 20:59:00,
2013-01-15 14:04:00,27.9,3.2,30.61,WNW,302,3.0,6.0,34,0.00,,,0.00,WeatherTracker,2013-01-15 21:04:00,